Benton City, Washington
Current Conditions -  °F | °C
As of 2:53 AM on Sunday 21 Dec 2014 (Local Time) from KPSC Reporting Station
Clear Clear  
Wind Chill: 57°   Ceiling: Unl
Heat Index: 57°   Visibility: 10mi
Dew Point: 51°   Wind: 23mph
Humidity: 81%   Direction: 240°WSW
Pressure: 29.61"   Gusts: 32mph
Location:  46.26°N, 119.49°W
Report Text: KPSC 211053Z AUTO 24020G28KT 10SM CLR 14/11 A2961 RMK AO2 PK WND 24033/1006 SLP026 T01390106
Loading
Personal Weather Stations






























Interactive Weather Map New forecast layout! Learn more

10-Day Weather Forecast

Advertisements
Track Severe Weather on mobile